Latest Weather Observations for Bradshaw

IDD60801

Issued at 2:05 pm CST Sunday 23 November 2014 (issued every 30 minutes, with the page automatically refreshed every 10 minutes)

About weather observations | Map of weather stations | Latest weather observations for NT | Other Formats
Station Details ID: 014954 Name: BRADSHAW Lat: -14.94 Lon: 130.81 Height: 75.0 m
Data from the previous 72 hours. | See also: Recent months at Bradshaw
Date/Time
CST
Temp
°C
App
Temp
°C
Dew
Point
Rel
Hum
%
Delta-T
°C
Wind Press
QNH
hPa
Press
MSL
hPa
Rain
since 9 am
mm
Dir
 
Spd
km/h
Gust
km/h
Spd
kts
Gust
kts
23/02:00pm 40.3 39.0 15.8 23 15.8 ENE 17 26 9 14 1008.4 - 0.0
23/01:30pm 40.1 41.2 18.1 27 14.6 NNW 9 20 5 11 1009.1 - 0.0
23/01:00pm 39.2 40.3 17.9 28 14.0 NE 9 17 5 9 1009.9 - 0.0
23/12:30pm 38.1 39.3 20.0 35 12.2 N 13 20 7 11 1010.5 - 0.0
23/12:00pm 37.5 39.3 20.3 36 11.6 W 11 15 6 8 1011.2 1010.6 0.0
23/11:30am 36.7 39.3 20.5 39 10.9 NNE 7 15 4 8 1011.7 - 0.0
23/11:00am 36.0 38.7 20.7 41 10.3 NNW 7 15 4 8 1011.9 - 0.0
23/10:30am 35.5 37.2 19.4 38 10.7 SW 9 15 5 8 1012.2 - 0.0
23/10:00am 35.0 38.2 22.3 47 8.7 WNW 9 13 5 7 1012.3 - 0.0
23/09:30am 33.2 36.7 23.5 56 6.8 N 11 17 6 9 1012.3 - 0.0
23/09:00am 32.3 36.1 23.5 59 6.1 NW 9 17 5 9 1012.5 1011.9 0.4
23/08:30am 31.1 34.3 22.4 60 5.9 N 9 15 5 8 1012.6 - 0.4
23/08:00am 30.7 34.0 21.8 59 6.0 NNE 7 13 4 7 1012.4 - 0.4
23/07:30am 30.0 33.1 21.4 60 5.8 NNE 7 11 4 6 1012.3 - 0.4
23/07:00am 28.4 31.6 21.2 65 4.8 NE 6 7 3 4 1012.1 - 0.4
23/06:30am 26.8 29.3 21.1 71 3.8 NE 9 11 5 6 1011.5 - 0.4
23/06:00am 26.6 29.5 21.1 72 3.7 NE 7 9 4 5 1011.0 1010.4 0.4
23/05:30am 26.2 30.4 21.0 73 3.4 CALM 0 2 0 1 1010.7 - 0.4
23/05:00am 26.5 29.5 20.8 71 3.8 E 6 7 3 4 1010.6 - 0.4
23/04:30am 27.0 29.5 21.1 70 3.9 NNW 9 15 5 8 1010.4 - 0.4
23/04:00am 27.2 29.2 20.8 68 4.2 NNW 11 13 6 7 1010.3 - 0.4
23/03:30am 27.3 29.0 20.9 68 4.2 N 13 17 7 9 1010.4 - 0.4
23/03:00am 27.4 29.9 21.0 68 4.3 NNW 9 13 5 7 1010.5 1009.9 0.4
23/02:30am 27.3 28.7 21.1 69 4.1 NNW 15 20 8 11 1010.7 - 0.4
23/02:00am 27.5 28.9 21.1 68 4.3 NNW 15 19 8 10 1010.6 - 0.4
23/01:30am 27.4 28.7 21.7 71 3.8 NNW 17 20 9 11 1010.8 - 0.4
23/01:00am 27.4 28.7 21.7 71 3.8 NNW 17 22 9 12 1011.1 - 0.4
23/12:30am 27.9 30.6 21.4 67 4.3 NNW 9 13 5 7 1011.3 - 0.4
23/12:00am 28.5 30.0 21.3 65 4.8 NNW 15 17 8 9 1011.2 1010.6 0.4
 
Date/Time
CST
Temp
°C
App
Temp
°C
Dew
Point
Rel
Hum
%
Delta-T
°C
Wind Press
QNH
hPa
Press
MSL
hPa
Rain
since 9 am
mm
Dir
 
Spd
km/h
Gust
km/h
Spd
kts
Gust
kts
22/11:30pm 28.3 31.2 21.8 68 4.4 NNW 9 13 5 7 1011.5 - 0.4
22/11:00pm 27.9 31.5 22.1 70 3.9 NNW 6 7 3 4 1011.7 - 0.4
22/10:30pm 27.9 31.7 22.4 72 3.7 NW 6 7 3 4 1011.8 - 0.4
22/10:00pm 27.9 31.2 22.6 73 3.6 SSW 9 13 5 7 1011.8 - 0.4
22/09:30pm 28.1 33.2 22.6 72 3.7 CALM 0 0 0 0 1011.1 - 0.4
22/09:00pm 28.2 31.7 22.2 70 4.1 N 7 9 4 5 1010.7 1010.1 0.4
22/08:30pm 28.0 31.9 22.5 72 3.7 NNW 6 11 3 6 1010.1 - 0.4
22/08:00pm 28.1 33.3 22.8 73 3.6 CALM 0 6 0 3 1009.5 - 0.4
22/07:30pm 28.0 31.8 22.7 73 3.6 N 7 9 4 5 1009.1 - 0.4
22/07:00pm 28.3 31.8 22.8 72 3.8 NW 9 13 5 7 1009.0 - 0.4
22/06:30pm 28.8 31.1 21.3 64 5.0 N 11 17 6 9 1008.3 - 0.4
22/06:00pm 28.5 32.6 22.3 69 4.2 ESE 4 9 2 5 1008.4 1007.8 0.4
22/05:30pm 28.0 30.4 21.5 67 4.4 WSW 11 15 6 8 1008.6 - 0.4
22/05:00pm 28.5 29.1 20.2 60 5.5 W 17 28 9 15 1008.7 - 0.2
22/04:30pm 29.8 30.8 19.5 54 6.7 S 13 19 7 10 1008.7 - 0.0
22/04:00pm 29.5 30.1 19.5 55 6.5 SW 15 30 8 16 1008.9 - 0.0
22/03:30pm 31.6 32.6 18.6 46 8.4 SW 11 19 6 10 1008.9 - 0.0
22/03:00pm 33.0 31.1 16.8 38 10.3 SW 22 44 12 24 1008.0 1007.4 0.0
22/02:30pm 34.8 34.6 18.4 38 10.7 SSW 17 26 9 14 1008.0 - 0.0
22/02:00pm 35.4 35.0 18.9 37 10.9 S 19 28 10 15 1008.4 - 0.0
22/01:30pm 38.0 37.6 19.4 33 12.4 S 20 35 11 19 1009.0 - 0.0
22/01:00pm 39.2 39.5 19.5 32 13.2 W 17 24 9 13 1009.4 - 0.0
22/12:30pm 38.8 40.9 20.1 33 12.6 ESE 9 22 5 12 1010.4 - 0.0
22/12:00pm 38.2 40.1 20.5 35 12.0 S 11 20 6 11 1010.8 1010.2 0.0
22/11:30am 37.7 39.8 20.9 37 11.4 SSW 11 19 6 10 1011.3 - 0.0
22/11:00am 36.3 39.3 21.3 41 10.2 N 7 13 4 7 1011.7 - 0.0
22/10:30am 35.7 39.0 21.9 44 9.5 NW 7 13 4 7 1012.0 - 0.0
22/10:00am 34.2 38.7 22.9 51 7.8 W 4 11 2 6 1012.5 - 0.0
22/09:30am 33.7 36.6 23.1 54 7.3 WNW 13 20 7 11 1012.6 - 0.0
22/09:00am 32.7 35.8 24.2 61 6.0 N 15 20 8 11 1012.2 1011.6 0.0
22/08:30am 32.2 37.0 24.5 64 5.4 NNE 7 13 4 7 1012.5 - 0.0
22/08:00am 31.5 36.2 24.9 68 4.7 N 9 15 5 8 1012.3 - 0.0
22/07:30am 30.6 36.3 25.0 72 3.9 NNW 4 9 2 5 1012.2 - 0.0
22/07:00am 29.8 35.8 24.9 75 3.4 WNW 2 7 1 4 1011.9 - 0.0
22/06:30am 29.3 34.5 24.8 77 3.2 WNW 6 7 3 4 1011.2 - 0.0
22/06:00am 29.1 34.2 24.6 76 3.1 W 6 9 3 5 1010.7 1010.1 0.0
22/05:30am 29.2 33.8 24.7 77 3.2 WSW 9 13 5 7 1010.6 - 0.0
22/05:00am 28.9 34.5 24.2 76 3.3 NW 2 6 1 3 1010.7 - 0.0
22/04:30am 28.7 32.8 24.0 76 3.3 NNW 9 11 5 6 1010.1 - 0.0
22/04:00am 28.8 33.3 23.9 75 3.4 NNW 7 9 4 5 1010.0 - 0.0
22/03:30am 28.8 33.0 23.2 71 3.8 NNW 6 9 3 5 1010.0 - 0.0
22/03:00am 29.0 32.2 23.0 70 4.1 N 11 15 6 8 1009.7 1009.1 0.0
22/02:30am 29.3 33.4 23.3 70 4.1 NNW 7 11 4 6 1009.6 - 0.0
22/02:00am 29.5 33.5 22.7 67 4.6 NNW 6 9 3 5 1009.5 - 0.0
22/01:30am 29.5 32.7 21.7 63 5.3 NNW 7 9 4 5 1009.8 - 0.0
22/01:00am 29.8 31.3 18.9 52 7.1 NW 9 13 5 7 1010.1 - 0.0
22/12:30am 29.8 31.3 19.8 55 6.6 WNW 11 15 6 8 1010.5 - 0.0
22/12:00am 30.3 31.8 20.5 55 6.5 NNW 13 17 7 9 1010.5 1009.9 0.0
 
Date/Time
CST
Temp
°C
App
Temp
°C
Dew
Point
Rel
Hum
%
Delta-T
°C
Wind Press
QNH
hPa
Press
MSL
hPa
Rain
since 9 am
mm
Dir
 
Spd
km/h
Gust
km/h
Spd
kts
Gust
kts
21/11:30pm 31.0 33.1 20.9 55 6.8 N 11 17 6 9 1010.8 - 0.0
21/11:00pm 31.4 34.3 21.8 56 6.5 W 9 13 5 7 1010.5 - 0.0
21/10:30pm 31.4 34.9 22.1 57 6.3 WSW 7 11 4 6 1010.4 - 0.0
21/10:00pm 32.2 33.3 22.0 55 6.9 NNW 19 30 10 16 1010.4 - 0.0
21/09:30pm 32.9 35.2 22.7 55 7.0 NNW 15 20 8 11 1009.7 - 0.0
21/09:00pm 33.5 34.2 22.3 52 7.7 NNW 22 32 12 17 1009.0 1008.4 0.0
21/08:30pm 34.2 34.9 22.3 50 8.2 NW 22 32 12 17 1008.4 - 0.0
21/08:10pm 35.3 34.1 20.8 42 9.8 WNW 28 41 15 22 1007.9 - 0.0
21/08:00pm 36.8 37.1 18.8 34 11.9 NNW 15 20 8 11 1007.9 - 0.0
21/07:30pm 38.5 36.8 13.7 23 15.4 N 15 19 8 10 1007.2 - 0.0
21/07:00pm 38.9 37.6 12.6 21 16.1 NNE 11 15 6 8 1006.5 - 0.0
21/06:30pm 39.7 37.0 11.7 19 17.0 NNE 17 20 9 11 1006.2 - 0.0
21/06:00pm 40.8 38.3 10.9 17 18.0 ENE 15 24 8 13 1006.0 1005.5 0.0
21/05:30pm 40.3 39.8 13.8 21 16.6 WNW 9 15 5 8 1005.9 - 0.0
21/05:00pm 40.4 38.7 12.3 19 17.2 N 13 20 7 11 1006.0 - 0.0
21/04:30pm 40.8 40.4 14.2 21 16.7 N 9 20 5 11 1006.1 - 0.0
21/04:00pm 41.6 41.8 14.1 20 17.3 SE 6 11 3 6 1006.3 - 0.0
21/03:30pm 41.0 40.6 15.1 22 16.5 WNW 11 20 6 11 1007.0 - 0.0
21/03:00pm 40.4 41.0 15.9 23 15.8 E 7 17 4 9 1007.3 1006.7 0.0
21/02:30pm 39.8 41.0 17.3 27 14.7 NW 7 13 4 7 1007.8 - 0.0
21/02:00pm 40.5 41.0 18.4 27 14.7 WNW 13 22 7 12 1008.3 - 0.0
21/01:30pm 39.8 41.6 19.5 31 13.7 W 9 20 5 11 1008.8 - 0.0
21/01:00pm 38.2 39.3 19.6 34 12.5 W 13 17 7 9 1009.7 - 0.0
21/12:30pm 38.1 39.2 20.4 35 12.0 WNW 15 24 8 13 1010.3 - 0.0
21/12:00pm 38.8 41.2 22.3 38 11.5 W 13 19 7 10 1010.9 1010.3 0.0
21/11:30am 36.9 39.3 21.5 41 10.5 NW 11 19 6 10 1011.4 - 0.0
21/11:00am 36.4 39.3 22.5 44 9.6 NW 11 28 6 15 1011.7 - 0.0
21/10:30am 35.3 37.9 21.9 45 9.2 N 11 20 6 11 1012.4 - 0.0
21/10:00am 34.9 36.9 22.2 47 8.7 N 15 24 8 13 1012.7 - 0.0
21/09:30am 33.8 36.0 21.9 49 8.1 NW 13 19 7 10 1012.8 - 0.0
21/09:00am 33.1 36.2 22.8 54 7.1 W 11 17 6 9 1012.8 1012.2 0.0
21/08:30am 31.9 35.6 23.2 60 6.0 WNW 9 15 5 8 1012.7 - 0.0
21/08:00am 30.8 34.4 23.7 66 4.9 NW 11 17 6 9 1012.6 - 0.0
21/07:30am 30.0 34.6 24.2 71 4.0 NNW 7 11 4 6 1012.3 - 0.0
21/07:00am 28.8 33.4 24.1 76 3.3 N 7 9 4 5 1012.0 - 0.0
21/06:30am 28.1 32.7 24.1 79 2.8 NNW 7 11 4 6 1011.5 - 0.0
21/06:00am 27.7 32.2 23.7 79 2.8 NNW 6 7 3 4 1011.1 1010.5 0.0
21/05:30am 28.0 32.4 23.8 78 2.9 N 7 9 4 5 1010.8 - 0.0
21/05:00am 28.3 33.0 23.9 77 3.0 NNW 6 7 3 4 1010.7 - 0.0
21/04:30am 28.4 34.1 23.8 76 3.2 CALM 0 0 0 0 1010.4 - 0.0
21/04:00am 28.6 33.1 23.9 75 3.3 NNW 7 11 4 6 1010.2 - 0.0
21/03:30am 28.7 33.1 23.8 75 3.4 NNW 7 13 4 7 1010.0 - 0.0
21/03:00am 28.9 32.8 23.6 73 3.7 NW 9 13 5 7 1010.0 1009.4 0.0
21/02:30am 29.1 32.5 23.3 71 4.0 NNW 11 15 6 8 1010.0 - 0.0
21/02:00am 29.4 32.9 22.9 68 4.5 NNW 9 13 5 7 1010.1 - 0.0
21/01:30am 29.7 32.1 22.2 64 5.1 NNW 13 20 7 11 1010.2 - 0.0
21/01:00am 29.9 32.2 21.3 60 5.8 NNW 11 15 6 8 1010.2 - 0.0
21/12:30am 30.3 32.2 20.5 55 6.5 NNW 11 17 6 9 1010.3 - 0.0
21/12:00am 30.9 31.9 20.2 53 7.1 NNW 15 24 8 13 1010.3 1009.7 0.0
 
Date/Time
CST
Temp
°C
App
Temp
°C
Dew
Point
Rel
Hum
%
Delta-T
°C
Wind Press
QNH
hPa
Press
MSL
hPa
Rain
since 9 am
mm
Dir
 
Spd
km/h
Gust
km/h
Spd
kts
Gust
kts
20/11:30pm 31.3 32.7 20.3 52 7.3 NNW 13 20 7 11 1010.1 - 0.0
20/11:00pm 31.9 34.0 20.2 50 7.8 NW 9 17 5 9 1010.1 - 0.0
20/10:30pm 32.3 34.7 20.9 51 7.7 NW 9 17 5 9 1009.8 - 0.0
20/10:00pm 32.9 35.1 21.1 50 8.0 NW 11 22 6 12 1009.5 - 0.0
20/09:30pm 33.8 35.9 20.9 46 8.7 NW 11 15 6 8 1009.1 - 0.0
20/09:00pm 34.2 36.1 20.6 45 9.2 W 11 19 6 10 1008.6 1008.0 0.0
20/08:30pm 35.1 35.5 17.3 34 11.5 NNW 11 15 6 8 1008.2 - 0.0
20/08:00pm 37.1 35.8 12.5 23 14.9 N 11 15 6 8 1008.0 - 0.0
20/07:30pm 37.5 35.7 12.2 22 15.3 N 13 19 7 10 1007.6 - 0.0
20/07:00pm 38.3 36.1 12.1 21 15.9 NNE 15 20 8 11 1007.2 - 0.0
20/06:30pm 39.1 36.3 11.3 19 16.7 NE 17 24 9 13 1006.9 - 0.0
20/06:00pm 40.1 36.9 11.2 18 17.4 NE 19 26 10 14 1006.6 1006.1 0.0
20/05:30pm 40.6 37.3 10.8 17 17.9 ENE 19 28 10 15 1006.4 - 0.0
20/05:00pm 41.1 38.1 9.3 15 18.7 E 15 32 8 17 1006.2 - 0.0
20/04:30pm 41.2 37.5 9.4 15 18.8 E 19 24 10 13 1006.4 - 0.0
20/04:00pm 40.9 36.7 8.1 14 19.0 NE 20 30 11 16 1006.5 - 0.0
20/03:30pm 43.2 40.4 9.9 14 19.9 E 15 24 8 13 1006.7 - 0.0
20/03:00pm 41.1 37.7 9.3 15 18.8 E 17 26 9 14 1007.3 1006.7 0.0
20/02:30pm 41.9 41.0 12.7 18 18.1 S 9 13 5 7 1007.6 - 0.0

Other Formats:

Comma delimited format used in spreadsheet applications
http://www.bom.gov.au/fwo/IDD60801/IDD60801.94130.axf

JavaScript Object Notation format (JSON) in row-major order
http://www.bom.gov.au/fwo/IDD60801/IDD60801.94130.json